createdAt,value
2022-09-21T00:01:15.738Z,74.96
2022-09-21T00:03:45.711Z,74.30
2022-09-21T00:06:18.269Z,73.32
2022-09-21T00:08:46.555Z,74.52
2022-09-21T00:11:15.598Z,75.99
2022-09-21T00:13:46.752Z,78.99
2022-09-21T00:16:16.451Z,80.24
2022-09-21T00:18:45.619Z,78.34
2022-09-21T00:21:15.963Z,76.77
2022-09-21T00:23:44.033Z,75.82
2022-09-21T00:26:14.649Z,78.31
2022-09-21T00:28:44.443Z,78.27
2022-09-21T00:31:14.369Z,78.95
2022-09-21T00:33:43.513Z,78.57
2022-09-21T00:36:14.816Z,78.91
2022-09-21T00:38:42.705Z,78.59
2022-09-21T00:41:12.236Z,78.39
2022-09-21T00:43:44.230Z,79.11
2022-09-21T00:46:16.606Z,79.11
2022-09-21T00:48:46.828Z,78.28
2022-09-21T00:51:16.462Z,77.71
2022-09-21T00:53:49.040Z,80.14
2022-09-21T00:56:20.287Z,79.34
2022-09-21T00:58:52.123Z,77.91
2022-09-21T01:01:20.791Z,76.59
2022-09-21T01:03:50.048Z,76.28
2022-09-21T01:06:21.454Z,75.06
2022-09-21T01:08:53.477Z,77.67
2022-09-21T01:11:30.595Z,77.49
2022-09-21T01:14:22.929Z,77.10
2022-09-21T01:17:02.384Z,76.81
2022-09-21T01:20:02.631Z,77.55
2022-09-21T01:22:47.178Z,76.49
2022-09-21T01:25:28.909Z,75.58
2022-09-21T01:28:10.139Z,75.64
2022-09-21T01:30:44.603Z,75.74
2022-09-21T01:33:18.254Z,76.23
2022-09-21T01:35:51.277Z,78.78
2022-09-21T01:38:26.755Z,78.37
2022-09-21T01:41:00.226Z,78.44
2022-09-21T01:43:32.371Z,77.95
2022-09-21T01:46:04.001Z,77.49
2022-09-21T01:48:35.738Z,76.03
2022-09-21T01:51:10.248Z,79.06
2022-09-21T01:53:42.056Z,80.07
2022-09-21T01:56:14.814Z,78.31
2022-09-21T01:58:46.712Z,77.25
2022-09-21T02:01:20.597Z,76.01
2022-09-21T02:03:54.043Z,75.19
2022-09-21T02:06:22.554Z,79.39
2022-09-21T02:08:50.301Z,80.78
2022-09-21T02:11:17.928Z,79.27
2022-09-21T02:13:48.006Z,77.69
2022-09-21T02:16:35.453Z,77.04
2022-09-21T02:19:13.430Z,75.51
2022-09-21T02:21:54.838Z,77.20
2022-09-21T02:24:33.658Z,77.11
2022-09-21T02:27:07.036Z,76.55
2022-09-21T02:29:46.322Z,75.40
2022-09-21T02:32:23.686Z,78.47
2022-09-21T02:34:55.225Z,77.24
2022-09-21T02:37:31.162Z,76.44
2022-09-21T02:40:04.348Z,76.18
2022-09-21T02:42:36.135Z,75.89
2022-09-21T02:45:09.199Z,75.73
2022-09-21T02:47:47.434Z,80.04
2022-09-21T02:50:21.212Z,79.22
2022-09-21T02:52:48.995Z,77.95
2022-09-21T02:55:18.806Z,76.08
2022-09-21T02:57:49.184Z,75.61
2022-09-21T03:00:18.028Z,81.44
2022-09-21T03:02:47.102Z,83.32
2022-09-21T03:05:16.022Z,81.85
2022-09-21T03:07:43.717Z,84.41
2022-09-21T03:10:11.778Z,87.19
2022-09-21T03:12:39.601Z,86.83
2022-09-21T03:15:07.818Z,89.18
2022-09-21T03:17:35.640Z,86.92
2022-09-21T03:20:05.210Z,87.23
2022-09-21T03:22:32.848Z,86.64
2022-09-21T03:25:00.528Z,87.46
2022-09-21T03:27:28.150Z,89.35
2022-09-21T03:29:59.981Z,88.76
2022-09-21T03:32:29.583Z,89.76
2022-09-21T03:34:57.259Z,88.32
2022-09-21T03:37:26.512Z,85.83
2022-09-21T03:39:54.172Z,85.18
2022-09-21T03:42:21.921Z,85.71
2022-09-21T03:44:49.585Z,84.88
2022-09-21T03:47:17.240Z,83.17
2022-09-21T03:49:45.121Z,83.12
2022-09-21T03:52:12.810Z,82.33
2022-09-21T03:54:41.846Z,83.09
2022-09-21T03:57:09.832Z,81.13
2022-09-21T03:59:37.521Z,81.09
2022-09-21T04:02:05.484Z,80.70
2022-09-21T04:04:33.254Z,80.22
2022-09-21T04:07:01.578Z,81.30
2022-09-21T04:09:29.300Z,81.11
2022-09-21T04:11:58.350Z,84.41
2022-09-21T04:14:26.294Z,83.66
2022-09-21T04:16:54.086Z,82.90
2022-09-21T04:19:22.331Z,82.23
2022-09-21T04:21:51.374Z,81.10
2022-09-21T04:24:19.653Z,79.66
2022-09-21T04:26:47.710Z,78.29
2022-09-21T04:29:17.372Z,77.98
2022-09-21T04:31:46.011Z,77.35
2022-09-21T04:34:15.052Z,76.13
2022-09-21T04:36:43.575Z,76.27
2022-09-21T04:39:11.308Z,75.52
2022-09-21T04:41:39.103Z,76.44
2022-09-21T04:44:06.848Z,76.67
2022-09-21T04:46:36.073Z,76.04
2022-09-21T04:49:03.921Z,75.56
2022-09-21T04:51:31.754Z,75.32
2022-09-21T04:54:00.093Z,75.42
2022-09-21T04:56:30.258Z,74.95
2022-09-21T04:58:58.335Z,75.20
2022-09-21T05:01:29.164Z,75.89
2022-09-21T05:04:01.708Z,77.84
2022-09-21T05:06:29.948Z,81.25
2022-09-21T05:09:15.086Z,83.21
2022-09-21T05:11:42.966Z,85.55
2022-09-21T05:14:11.438Z,83.69
2022-09-21T05:16:41.703Z,81.21
2022-09-21T05:19:11.026Z,80.58
2022-09-21T05:21:40.956Z,78.77
2022-09-21T05:24:09.143Z,78.44
2022-09-21T05:26:36.939Z,78.34
2022-09-21T05:29:05.648Z,78.46
2022-09-21T05:31:42.280Z,78.68
2022-09-21T05:34:26.625Z,77.52
2022-09-21T05:37:02.465Z,76.74
2022-09-21T05:39:30.891Z,75.59
2022-09-21T05:41:59.051Z,76.63
2022-09-21T05:44:27.364Z,78.40
2022-09-21T05:47:00.664Z,78.45
2022-09-21T05:49:46.005Z,77.62
2022-09-21T05:52:21.848Z,78.70
2022-09-21T05:55:02.967Z,79.85
2022-09-21T05:57:43.325Z,78.92
2022-09-21T06:00:18.656Z,77.22
2022-09-21T06:03:10.855Z,79.48
2022-09-21T06:05:43.720Z,81.17
2022-09-21T06:08:13.680Z,80.59
2022-09-21T06:10:42.065Z,79.87
2022-09-21T06:13:10.204Z,78.39
2022-09-21T06:15:38.492Z,77.37
2022-09-21T06:18:12.142Z,76.88
2022-09-21T06:20:43.424Z,77.10
2022-09-21T06:23:13.226Z,76.43
2022-09-21T06:25:40.999Z,76.62
2022-09-21T06:28:10.896Z,77.06
2022-09-21T06:30:39.429Z,77.08
2022-09-21T06:33:08.169Z,82.39
2022-09-21T06:35:37.684Z,84.88
2022-09-21T06:38:08.189Z,86.03
2022-09-21T06:40:37.820Z,86.57
2022-09-21T06:43:06.842Z,84.63
2022-09-21T06:45:34.720Z,82.62
2022-09-21T06:48:02.838Z,80.78
2022-09-21T06:50:30.775Z,81.37
2022-09-21T06:53:01.490Z,81.85
2022-09-21T06:55:30.677Z,83.46
2022-09-21T06:58:01.803Z,84.82
2022-09-21T07:00:30.335Z,82.27
2022-09-21T07:02:58.401Z,79.58
2022-09-21T07:05:26.592Z,78.35
2022-09-21T07:07:58.557Z,76.37
2022-09-21T07:10:30.375Z,81.42
2022-09-21T07:13:04.259Z,80.68
2022-09-21T07:15:32.101Z,78.25
2022-09-21T07:18:07.452Z,75.46
2022-09-21T07:20:35.275Z,75.71
2022-09-21T07:23:11.348Z,74.44
2022-09-21T07:25:40.573Z,73.61
2022-09-21T07:28:08.810Z,76.90
2022-09-21T07:30:37.667Z,74.15
2022-09-21T07:33:06.253Z,71.35
2022-09-21T07:35:35.247Z,71.30
2022-09-21T07:38:05.827Z,69.68
2022-09-21T07:40:33.843Z,70.83
2022-09-21T07:43:03.804Z,72.53
2022-09-21T07:45:32.168Z,71.05
2022-09-21T07:48:04.451Z,68.32
2022-09-21T07:50:33.666Z,70.31
2022-09-21T07:53:01.686Z,70.05
2022-09-21T07:55:29.880Z,62.96
2022-09-21T07:58:15.110Z,67.04
2022-09-21T08:00:44.416Z,63.41
2022-09-21T08:03:12.631Z,62.91
2022-09-21T08:05:40.483Z,59.89
2022-09-21T08:08:08.954Z,62.13
2022-09-21T08:10:37.287Z,62.05
2022-09-21T08:13:05.087Z,61.70
2022-09-21T08:15:50.164Z,60.80
2022-09-21T08:18:19.553Z,61.06
2022-09-21T08:20:55.350Z,57.28
2022-09-21T08:23:23.443Z,59.62
2022-09-21T08:25:51.296Z,60.66
2022-09-21T08:28:19.653Z,63.77
2022-09-21T08:30:47.464Z,61.99
2022-09-21T08:33:15.401Z,60.55
2022-09-21T08:35:44.506Z,66.06
2022-09-21T08:38:12.357Z,61.07
2022-09-21T08:40:42.248Z,61.11
2022-09-21T08:43:13.740Z,60.25
2022-09-21T08:45:45.321Z,59.63
2022-09-21T08:48:23.975Z,55.42
2022-09-21T08:50:58.448Z,56.68
2022-09-21T08:53:34.241Z,57.30
2022-09-21T08:56:02.931Z,57.11
2022-09-21T08:58:32.484Z,54.12
2022-09-21T09:01:15.612Z,51.85
2022-09-21T09:04:05.030Z,55.38
2022-09-21T09:06:44.698Z,53.92
2022-09-21T09:09:27.725Z,51.47
2022-09-21T09:12:16.388Z,52.19
2022-09-21T09:14:56.933Z,55.05
2022-09-21T09:17:39.142Z,52.88
2022-09-21T09:20:12.369Z,52.29
2022-09-21T09:22:46.500Z,52.68
2022-09-21T09:25:21.149Z,50.96
2022-09-21T09:27:54.345Z,50.38
2022-09-21T09:30:25.459Z,49.21
2022-09-21T09:32:59.383Z,52.98
2022-09-21T09:35:29.817Z,49.32
2022-09-21T09:38:03.800Z,52.25
2022-09-21T09:40:57.278Z,47.92
2022-09-21T09:43:39.609Z,50.09
2022-09-21T09:46:15.356Z,48.88
2022-09-21T09:49:02.212Z,50.40
2022-09-21T09:51:30.388Z,51.85
2022-09-21T09:54:01.143Z,48.71
2022-09-21T09:56:29.237Z,54.12
2022-09-21T09:59:03.445Z,56.31
2022-09-21T10:01:42.672Z,56.77
2022-09-21T10:04:12.842Z,54.08
2022-09-21T10:06:46.082Z,50.32
2022-09-21T10:09:24.722Z,53.08
2022-09-21T10:11:53.701Z,53.98
2022-09-21T10:14:24.944Z,54.25
2022-09-21T10:16:54.412Z,53.94
2022-09-21T10:19:25.321Z,49.04
2022-09-21T10:21:58.516Z,55.40
2022-09-21T10:24:30.735Z,55.54
2022-09-21T10:27:06.235Z,54.53
2022-09-21T10:29:41.671Z,51.02
2022-09-21T10:32:24.669Z,49.02
2022-09-21T10:35:16.318Z,54.92
2022-09-21T10:37:46.343Z,54.00
2022-09-21T10:40:27.282Z,54.35
2022-09-21T10:42:56.352Z,52.82
2022-09-21T10:45:26.718Z,50.06
2022-09-21T10:47:57.588Z,48.83
2022-09-21T10:50:29.045Z,47.33
2022-09-21T10:53:01.285Z,47.25
2022-09-21T10:55:32.170Z,49.60
2022-09-21T10:58:00.904Z,46.47
2022-09-21T11:00:36.389Z,47.32
2022-09-21T11:03:28.582Z,48.18
2022-09-21T11:05:59.688Z,50.38
2022-09-21T11:08:34.840Z,45.16
2022-09-21T11:11:14.819Z,44.79
2022-09-21T11:13:50.894Z,44.75
2022-09-21T11:16:25.604Z,44.60
2022-09-21T11:18:59.383Z,45.06
2022-09-21T11:21:39.014Z,43.92
2022-09-21T11:24:21.522Z,44.46
2022-09-21T11:26:57.126Z,42.35
2022-09-21T11:29:30.417Z,41.60
2022-09-21T11:32:16.247Z,44.04
2022-09-21T11:35:04.238Z,41.29
2022-09-21T11:37:46.201Z,42.68
2022-09-21T11:40:28.364Z,44.32
2022-09-21T11:43:10.002Z,41.95
2022-09-21T11:45:59.426Z,40.44
2022-09-21T11:48:43.759Z,41.31
2022-09-21T11:51:25.652Z,43.24
2022-09-21T11:54:21.928Z,40.79
2022-09-21T11:56:53.206Z,45.22
2022-09-21T11:59:50.791Z,45.44
2022-09-21T12:02:44.288Z,41.92
2022-09-21T12:05:21.184Z,40.97
2022-09-21T12:08:18.447Z,39.93
2022-09-21T12:10:56.192Z,41.11
2022-09-21T12:13:37.176Z,41.83
2022-09-21T12:16:14.303Z,42.69
2022-09-21T12:18:56.276Z,43.84
2022-09-21T12:21:28.515Z,43.37
2022-09-21T12:23:58.121Z,42.05
2022-09-21T12:26:30.696Z,43.13
2022-09-21T12:29:03.427Z,41.94
2022-09-21T12:31:39.391Z,40.22
2022-09-21T12:34:14.707Z,39.10
2022-09-21T12:36:53.598Z,39.56
2022-09-21T12:39:27.166Z,41.33
2022-09-21T12:42:02.080Z,42.36
2022-09-21T12:44:51.806Z,40.97
2022-09-21T12:47:28.279Z,41.77
2022-09-21T12:50:00.759Z,41.94
2022-09-21T12:52:29.211Z,40.87
2022-09-21T12:55:05.914Z,41.40
2022-09-21T12:58:10.770Z,41.12
2022-09-21T13:00:43.509Z,39.58
2022-09-21T13:03:19.904Z,39.21
2022-09-21T13:06:06.468Z,42.15
2022-09-21T13:08:37.590Z,39.82
2022-09-21T13:11:07.916Z,40.33
2022-09-21T13:13:39.584Z,41.13
2022-09-21T13:16:08.594Z,39.54
2022-09-21T13:18:40.393Z,39.64
2022-09-21T13:21:19.969Z,39.60
2022-09-21T13:23:55.882Z,40.92
2022-09-21T13:26:34.654Z,41.43
2022-09-21T13:29:30.251Z,40.00
2022-09-21T13:32:00.523Z,41.14
2022-09-21T13:34:36.079Z,40.44
2022-09-21T13:37:34.045Z,41.82
2022-09-21T13:40:41.879Z,43.07
2022-09-21T13:43:23.439Z,41.38
2022-09-21T13:45:55.608Z,39.52
2022-09-21T13:48:29.480Z,40.20
2022-09-21T13:51:07.357Z,40.00
2022-09-21T13:53:40.860Z,40.42
2022-09-21T13:56:17.493Z,40.25
2022-09-21T13:58:47.928Z,39.54
2022-09-21T14:01:45.688Z,41.25
2022-09-21T14:04:21.635Z,41.96
2022-09-21T14:06:53.348Z,42.28
2022-09-21T14:09:25.476Z,40.31
2022-09-21T14:12:00.173Z,41.11
2022-09-21T14:14:31.472Z,41.81
2022-09-21T14:17:00.208Z,42.04
2022-09-21T14:20:03.753Z,41.89
2022-09-21T14:22:38.888Z,41.12
2022-09-21T14:25:27.517Z,40.28
2022-09-21T14:28:00.250Z,39.91
2022-09-21T14:30:32.040Z,39.89
2022-09-21T14:33:13.238Z,41.51
2022-09-21T14:35:43.352Z,41.68
2022-09-21T14:38:20.906Z,42.10
2022-09-21T14:40:51.331Z,40.54
2022-09-21T14:43:35.135Z,39.70
2022-09-21T14:46:17.101Z,41.13
2022-09-21T14:49:00.080Z,40.60
2022-09-21T14:51:38.129Z,40.13
2022-09-21T14:54:32.750Z,40.02
2022-09-21T14:57:15.567Z,40.77
2022-09-21T14:59:58.788Z,40.64
2022-09-21T15:02:28.522Z,39.12
2022-09-21T15:05:05.153Z,38.17
2022-09-21T15:07:58.042Z,37.85
2022-09-21T15:11:02.601Z,37.49
2022-09-21T15:13:46.520Z,38.76
2022-09-21T15:16:35.246Z,39.99
2022-09-21T15:19:13.798Z,38.98
2022-09-21T15:21:44.403Z,41.92
2022-09-21T15:24:20.253Z,39.62
2022-09-21T15:26:51.499Z,40.49
2022-09-21T15:29:27.613Z,39.54
2022-09-21T15:31:56.339Z,38.43
2022-09-21T15:34:24.882Z,37.98
2022-09-21T15:36:53.310Z,38.07
2022-09-21T15:39:26.830Z,38.66
2022-09-21T15:42:19.671Z,38.91
2022-09-21T15:44:50.484Z,39.48
2022-09-21T15:47:24.085Z,39.09
2022-09-21T15:49:53.914Z,39.25
2022-09-21T15:52:28.171Z,39.88
2022-09-21T15:55:00.307Z,41.92
2022-09-21T15:57:38.863Z,43.92
2022-09-21T16:00:18.756Z,44.30
2022-09-21T16:03:04.172Z,44.89
2022-09-21T16:05:34.433Z,45.77
2022-09-21T16:08:07.603Z,45.59
2022-09-21T16:10:40.963Z,46.61
2022-09-21T16:13:36.406Z,45.54
2022-09-21T16:16:06.772Z,45.78
2022-09-21T16:18:43.148Z,45.67
2022-09-21T16:21:20.385Z,45.33
2022-09-21T16:23:49.313Z,46.48
2022-09-21T16:26:23.419Z,46.99
2022-09-21T16:28:59.411Z,46.55
2022-09-21T16:31:32.951Z,45.81
2022-09-21T16:34:05.376Z,46.00
2022-09-21T16:36:42.982Z,46.22
2022-09-21T16:39:15.514Z,46.70
2022-09-21T16:42:02.210Z,45.92
2022-09-21T16:44:40.216Z,45.70
2022-09-21T16:47:15.326Z,45.98
2022-09-21T16:49:43.847Z,46.19
2022-09-21T16:52:11.875Z,47.00
2022-09-21T16:54:39.717Z,45.87
2022-09-21T16:57:08.142Z,46.21
2022-09-21T16:59:37.459Z,46.64
2022-09-21T17:02:05.908Z,46.57
2022-09-21T17:04:36.719Z,47.00
2022-09-21T17:07:05.954Z,46.27
2022-09-21T17:09:35.844Z,45.94
2022-09-21T17:12:06.326Z,45.86
2022-09-21T17:14:35.921Z,47.77
2022-09-21T17:17:08.327Z,47.67
2022-09-21T17:19:36.805Z,49.15
2022-09-21T17:22:06.737Z,50.54
2022-09-21T17:24:49.783Z,50.28
2022-09-21T17:27:19.898Z,50.96
2022-09-21T17:29:49.200Z,51.96
2022-09-21T17:32:20.783Z,51.13
2022-09-21T17:34:58.580Z,52.09
2022-09-21T17:37:26.814Z,51.47
2022-09-21T17:39:54.773Z,52.80
2022-09-21T17:42:25.110Z,53.35
2022-09-21T17:45:12.336Z,53.42
2022-09-21T17:47:42.574Z,52.92
2022-09-21T17:50:20.096Z,53.08
2022-09-21T17:53:06.237Z,52.98
2022-09-21T17:55:34.671Z,52.95
2022-09-21T17:58:28.161Z,53.38
2022-09-21T18:01:02.851Z,53.91
2022-09-21T18:03:35.810Z,53.83
2022-09-21T18:10:25.002Z,54.61
2022-09-21T18:13:17.008Z,54.03
2022-09-21T18:15:56.637Z,53.93
2022-09-21T18:18:42.765Z,54.24
2022-09-21T18:21:17.765Z,54.16
2022-09-21T18:24:02.312Z,53.44
2022-09-21T18:26:30.851Z,53.62
2022-09-21T18:28:59.372Z,54.44
2022-09-21T18:31:42.782Z,56.21
2022-09-21T18:34:34.889Z,58.94
2022-09-21T18:37:15.072Z,59.94
2022-09-21T18:39:55.632Z,57.69
2022-09-21T18:42:32.020Z,56.44
2022-09-21T18:45:05.143Z,57.24
2022-09-21T18:47:41.124Z,58.80
2022-09-21T18:50:23.760Z,58.11
2022-09-21T18:52:58.288Z,57.40
2022-09-21T18:55:32.788Z,58.32
2022-09-21T18:58:01.513Z,58.80
2022-09-21T19:00:32.724Z,58.40
2022-09-21T19:03:18.880Z,60.21
2022-09-21T19:06:13.748Z,60.33
2022-09-21T19:08:50.335Z,62.59
2022-09-21T19:11:23.147Z,61.49
2022-09-21T19:14:01.490Z,59.95
2022-09-21T19:16:34.446Z,60.45
2022-09-21T19:19:15.314Z,60.25
2022-09-21T19:21:51.949Z,59.58
2022-09-21T19:24:27.095Z,59.93
2022-09-21T19:27:08.605Z,59.71
2022-09-21T19:29:47.456Z,60.11
2022-09-21T19:32:17.546Z,61.30
2022-09-21T19:34:45.933Z,61.32
2022-09-21T19:37:15.313Z,61.47
2022-09-21T19:39:43.415Z,63.98
2022-09-21T19:42:26.646Z,66.48
2022-09-21T19:45:10.888Z,64.60
2022-09-21T19:47:47.736Z,63.23
2022-09-21T19:50:18.899Z,69.91
2022-09-21T19:52:48.982Z,67.46
2022-09-21T19:55:36.928Z,68.75
2022-09-21T19:58:23.247Z,66.66
2022-09-21T20:00:55.614Z,65.52
2022-09-21T20:03:31.550Z,67.81
2022-09-21T20:06:05.711Z,68.30
2022-09-21T20:08:41.317Z,67.58
2022-09-21T20:11:14.646Z,67.89
2022-09-21T20:14:06.236Z,66.35
2022-09-21T20:16:50.884Z,65.32
2022-09-21T20:19:30.906Z,64.69
2022-09-21T20:22:04.862Z,64.32
2022-09-21T20:24:41.451Z,64.28
2022-09-21T20:27:21.755Z,64.32
2022-09-21T20:29:49.461Z,64.85
2022-09-21T20:32:17.341Z,64.56
2022-09-21T20:34:45.102Z,68.34
2022-09-21T20:37:13.541Z,69.98
2022-09-21T20:39:42.641Z,71.99
2022-09-21T20:42:16.119Z,70.59
2022-09-21T20:44:43.838Z,68.89
2022-09-21T20:47:11.898Z,70.85
2022-09-21T20:49:39.712Z,70.03
2022-09-21T20:52:09.198Z,68.44
2022-09-21T20:54:37.238Z,73.68
2022-09-21T20:57:06.835Z,73.44
2022-09-21T20:59:34.571Z,72.36
2022-09-21T21:02:02.380Z,73.40
2022-09-21T21:04:30.369Z,72.60
2022-09-21T21:07:00.417Z,70.60
2022-09-21T21:09:28.464Z,69.63
2022-09-21T21:11:56.485Z,68.91
2022-09-21T21:14:26.070Z,68.86
2022-09-21T21:16:54.064Z,69.33
2022-09-21T21:19:24.271Z,69.96
2022-09-21T21:21:51.975Z,73.35
2022-09-21T21:24:37.073Z,77.67
2022-09-21T21:27:05.376Z,73.76
2022-09-21T21:29:35.066Z,72.33
2022-09-21T21:32:03.975Z,72.37
2022-09-21T21:34:31.821Z,72.37
2022-09-21T21:36:59.503Z,71.66
2022-09-21T21:39:27.279Z,74.21
2022-09-21T21:41:55.012Z,75.48
2022-09-21T21:44:24.877Z,74.52
2022-09-21T21:46:54.724Z,73.69
2022-09-21T21:49:22.492Z,71.92
2022-09-21T21:51:50.511Z,71.82
2022-09-21T21:54:19.290Z,71.75
2022-09-21T21:56:49.210Z,72.04
2022-09-21T21:59:19.300Z,73.22
2022-09-21T22:01:47.800Z,72.28
2022-09-21T22:04:17.225Z,72.79
2022-09-21T22:06:44.939Z,73.27
2022-09-21T22:09:12.848Z,75.66
2022-09-21T22:11:40.580Z,74.42
2022-09-21T22:14:08.644Z,73.76
2022-09-21T22:16:37.723Z,72.77
2022-09-21T22:19:06.992Z,72.51
2022-09-21T22:21:41.137Z,71.86
2022-09-21T22:24:10.069Z,71.64
2022-09-21T22:26:40.631Z,71.55
2022-09-21T22:29:10.621Z,71.63
2022-09-21T22:31:41.226Z,71.52
2022-09-21T22:34:10.033Z,75.02
2022-09-21T22:36:39.873Z,77.88
2022-09-21T22:39:09.047Z,78.36
2022-09-21T22:41:38.617Z,75.72
2022-09-21T22:44:06.763Z,74.61
2022-09-21T22:46:37.552Z,73.75
2022-09-21T22:49:05.629Z,73.30
2022-09-21T22:51:33.849Z,72.39
2022-09-21T22:54:02.963Z,72.20
2022-09-21T22:56:32.459Z,72.60
2022-09-21T22:59:02.304Z,72.31
2022-09-21T23:01:33.501Z,72.82
2022-09-21T23:04:03.415Z,77.00
2022-09-21T23:06:34.642Z,74.65
2022-09-21T23:09:06.869Z,74.01
2022-09-21T23:11:39.350Z,72.90
2022-09-21T23:14:07.528Z,73.92
2022-09-21T23:16:35.906Z,75.40
2022-09-21T23:19:03.679Z,75.19
2022-09-21T23:21:31.565Z,76.45
2022-09-21T23:24:01.554Z,74.86
2022-09-21T23:26:33.936Z,74.38
2022-09-21T23:29:04.250Z,77.10
2022-09-21T23:31:33.606Z,75.50
2022-09-21T23:34:07.293Z,73.87
2022-09-21T23:36:36.815Z,72.70
2022-09-21T23:39:05.042Z,73.21
2022-09-21T23:41:35.640Z,73.92
2022-09-21T23:44:04.666Z,75.55
2022-09-21T23:46:37.075Z,75.34
2022-09-21T23:49:05.628Z,75.96
2022-09-21T23:51:33.392Z,77.33
2022-09-21T23:54:01.855Z,77.97
2022-09-21T23:56:30.235Z,76.57
2022-09-21T23:59:00.215Z,77.52
